Time;durP1;ratioP1;P1;durP2;ratioP2;P2;SDS_P1;SDS_P2;PMS_P1;PMS_P2;Temp;Humidity;BMP_temperature;BMP_pressure;BME280_temperature;BME280_humidity;BME280_pressure;Samples;Min_cycle;Max_cycle;Signal;HPM_P1;HPM_P2
2023/02/01 08:16:36;;;;;;;2.83;1.90;;;;;;;;;;6010767;23;20027;31
2023/02/01 09:34:04;;;;;;;2.78;1.70;;;;;;;;;;4962074;29;20042;-95
2023/02/01 09:36:33;;;;;;;3.05;1.50;;;;;;;;;;4953251;29;20042;-96
2023/02/01 09:42:35;;;;;;;2.75;1.38;;;;;;;;;;5936421;23;20808;-94
2023/02/01 09:48:19;;;;;;;3.65;1.77;;;;;;;;;;4975226;23;20059;-96
2023/02/01 10:19:16;;;;;;;3.13;1.88;;;;;;;;;;5133361;23;20106;-95
2023/02/01 11:55:19;;;;;;;5.10;2.00;;;;;;;;;;4747505;23;20304;-92
2023/02/01 13:07:41;;;;;;;6.90;1.60;;;;;;;;;;5661869;23;20709;-92
2023/02/01 13:10:35;;;;;;;6.05;1.65;;;;;;;;;;4932587;29;20072;-96
2023/02/01 15:43:56;;;;;;;;;;;;;;;;;;;;;
2023/02/01 15:46:42;;;;;;;3.90;1.00;;;;;;;;;;4889126;29;20056;-95
2023/02/01 15:52:46;;;;;;;3.37;1.17;;;;;;;;;;4898188;29;20513;-96
2023/02/01 18:13:29;;;;;;;;;;;;;;;;;;;;;
2023/02/01 18:20:06;;;;;;;4.18;1.08;;;;;;;;;;4965577;28;20123;-96
2023/02/01 18:22:48;;;;;;;;;;;;;;;;;;;;;
2023/02/01 18:41:08;;;;;;;6.18;1.90;;;;;;;;;;4957508;29;20079;-96
2023/02/01 18:50:23;;;;;;;5.10;1.70;;;;;;;;;;5229029;23;20055;-96
2023/02/01 18:52:55;;;;;;;5.28;1.52;;;;;;;;;;4959874;29;20038;-96
2023/02/01 18:55:28;;;;;;;4.75;1.98;;;;;;;;;;4954680;29;20086;-96
2023/02/01 18:58:00;;;;;;;6.85;2.50;;;;;;;;;;4945906;29;20038;-95
2023/02/01 19:00:27;;;;;;;5.15;2.33;;;;;;;;;;4946087;23;20063;-94
2023/02/01 19:02:56;;;;;;;6.30;2.70;;;;;;;;;;4939655;29;20059;-95
2023/02/01 19:05:22;;;;;;;7.25;3.05;;;;;;;;;;4938799;29;20435;-95
2023/02/01 19:07:51;;;;;;;5.05;2.85;;;;;;;;;;4944390;28;20031;-94
2023/02/01 19:10:20;;;;;;;8.75;2.97;;;;;;;;;;4941085;29;20027;-96
2023/02/01 19:12:54;;;;;;;5.03;2.65;;;;;;;;;;4942897;29;20039;-96
2023/02/01 19:15:20;;;;;;;6.95;2.78;;;;;;;;;;4944462;28;20028;-96
2023/02/01 19:21:14;;;;;;;6.32;2.50;;;;;;;;;;4956563;28;20118;-96
2023/02/01 19:30:09;;;;;;;5.68;2.85;;;;;;;;;;4960945;29;20749;-94
2023/02/01 19:32:40;;;;;;;6.25;3.45;;;;;;;;;;4942467;29;20031;-96
2023/02/01 19:38:27;;;;;;;8.07;3.65;;;;;;;;;;4959216;29;20069;-96
2023/02/01 19:41:09;;;;;;;7.60;3.50;;;;;;;;;;4959710;29;20130;-96
2023/02/01 19:44:02;;;;;;;;;;;;;;;;;;;;;
2023/02/01 19:46:31;;;;;;;8.05;3.15;;;;;;;;;;4960673;29;20083;-96
2023/02/01 19:54:40;;;;;;;5.32;2.80;;;;;;;;;;4928262;29;20028;-95
2023/02/01 19:57:35;;;;;;;6.10;2.55;;;;;;;;;;4941657;29;20035;-96
2023/02/01 20:00:36;;;;;;;6.10;2.55;;;;;;;;;;4940957;28;20050;-96
2023/02/01 20:02:58;;;;;;;4.82;2.63;;;;;;;;;;4954748;28;20035;-96
2023/02/01 20:05:32;;;;;;;8.00;2.85;;;;;;;;;;4941582;29;20035;-96
2023/02/01 20:08:01;;;;;;;6.30;2.70;;;;;;;;;;4941043;29;20027;-96
2023/02/01 20:13:52;;;;;;;5.68;2.97;;;;;;;;;;4946702;28;20039;-96
2023/02/01 20:16:28;;;;;;;;;;;;;;;;;;;;;
2023/02/01 20:25:05;;;;;;;5.43;2.65;;;;;;;;;;4950713;29;20514;-96
2023/02/01 20:27:32;;;;;;;5.65;2.58;;;;;;;;;;4947355;29;20089;-96
2023/02/01 20:29:58;;;;;;;6.63;2.72;;;;;;;;;;4941588;29;20042;-96
2023/02/01 20:33:02;;;;;;;6.85;2.80;;;;;;;;;;4943960;29;20472;-96
2023/02/01 20:42:24;;;;;;;8.77;3.25;;;;;;;;;;4900653;29;20043;-96
2023/02/01 20:44:56;;;;;;;5.18;2.60;;;;;;;;;;4903515;29;20039;-96
2023/02/01 20:47:25;;;;;;;6.35;3.20;;;;;;;;;;4924035;29;20024;-94
2023/02/01 20:50:01;;;;;;;;;;;;;;;;;;;;;
2023/02/01 20:52:44;;;;;;;6.90;2.65;;;;;;;;;;4935806;29;20054;-96
2023/02/01 20:55:35;;;;;;;6.57;2.47;;;;;;;;;;4919773;29;20035;-96
2023/02/01 20:58:32;;;;;;;;;;;;;;;;;;;;;
2023/02/01 21:01:10;;;;;;;6.88;2.63;;;;;;;;;;4927924;29;20055;-95
2023/02/01 21:04:25;;;;;;;7.18;2.72;;;;;;;;;;4919454;29;20024;-95
2023/02/01 21:07:06;;;;;;;6.07;2.83;;;;;;;;;;4936492;29;20051;-96
2023/02/01 21:10:09;;;;;;;;;;;;;;;;;;;;;
2023/02/01 21:13:01;;;;;;;7.75;2.40;;;;;;;;;;4934002;29;20084;-96
2023/02/01 21:32:59;;;;;;;;;;;;;;;;;;;;;
2023/02/01 21:35:46;;;;;;;5.50;2.22;;;;;;;;;;4962400;29;20116;-96
2023/02/01 21:38:51;;;;;;;;;;;;;;;;;;;;;
2023/02/01 21:51:38;;;;;;;7.32;1.80;;;;;;;;;;4844933;29;20075;-95
2023/02/01 21:58:08;;;;;;;;;;;;;;;;;;;;;
2023/02/01 22:00:51;;;;;;;4.93;1.88;;;;;;;;;;4849513;29;20062;-95
2023/02/01 22:06:52;;;;;;;5.43;1.88;;;;;;;;;;4877816;29;20041;-95
2023/02/01 22:09:45;;;;;;;5.85;2.10;;;;;;;;;;4884322;29;20115;-95
2023/02/01 22:13:00;;;;;;;;;;;;;;;;;;;;;
2023/02/01 22:15:16;;;;;;;7.25;1.92;;;;;;;;;;4894610;29;20028;-95
2023/02/01 22:17:44;;;;;;;6.75;1.90;;;;;;;;;;4884552;29;20490;-96
2023/02/01 22:20:20;;;;;;;5.95;1.85;;;;;;;;;;4882254;29;20033;-95
2023/02/01 22:23:33;;;;;;;8.27;2.53;;;;;;;;;;4903423;29;20052;-96
2023/02/01 22:25:40;;;;;;;6.65;2.00;;;;;;;;;;4915449;29;20036;-95
2023/02/01 22:28:15;;;;;;;4.75;1.77;;;;;;;;;;4901534;29;20090;-96
2023/02/01 22:33:59;;;;;;;6.40;2.50;;;;;;;;;;4917219;29;20121;-95
2023/02/01 22:36:27;;;;;;;5.68;2.15;;;;;;;;;;4862841;29;20048;-95
2023/02/01 22:38:53;;;;;;;8.65;2.67;;;;;;;;;;4930461;29;20519;-94
2023/02/01 22:41:20;;;;;;;7.53;2.60;;;;;;;;;;4936043;29;20110;-93
2023/02/01 22:43:48;;;;;;;5.13;2.15;;;;;;;;;;4936638;29;20023;-95
2023/02/01 22:46:16;;;;;;;4.95;2.10;;;;;;;;;;4936180;29;20051;-93
2023/02/01 22:48:43;;;;;;;5.28;1.60;;;;;;;;;;4936001;29;20469;-94
2023/02/01 22:51:20;;;;;;;3.47;0.90;;;;;;;;;;4936334;29;20032;-94
2023/02/01 22:53:55;;;;;;;1.10;0.50;;;;;;;;;;4939176;29;20019;-96
2023/02/01 22:56:23;;;;;;;1.15;0.40;;;;;;;;;;4941581;29;20024;-94
2023/02/01 22:58:52;;;;;;;0.90;0.40;;;;;;;;;;4940101;29;20369;-94
2023/02/01 23:01:18;;;;;;;0.80;0.30;;;;;;;;;;4938623;29;20043;-93
2023/02/01 23:03:45;;;;;;;0.93;0.30;;;;;;;;;;4940087;29;20028;-94
2023/02/01 23:06:12;;;;;;;0.85;0.20;;;;;;;;;;4942994;29;20118;-93
2023/02/01 23:08:41;;;;;;;1.42;0.28;;;;;;;;;;4939390;29;20031;-96
2023/02/01 23:11:08;;;;;;;0.73;0.10;;;;;;;;;;4939042;29;20035;-93
2023/02/01 23:13:35;;;;;;;0.75;0.17;;;;;;;;;;4938640;29;20444;-93
2023/02/01 23:16:09;;;;;;;0.70;0.10;;;;;;;;;;4938301;29;20035;-94
2023/02/01 23:18:35;;;;;;;0.60;0.20;;;;;;;;;;4938504;29;20035;-93
2023/02/01 23:21:02;;;;;;;1.48;0.40;;;;;;;;;;4937926;29;20035;-93
2023/02/01 23:23:29;;;;;;;2.33;0.40;;;;;;;;;;4938681;29;20023;-96
2023/02/01 23:25:57;;;;;;;2.55;0.40;;;;;;;;;;4938366;29;20031;-94
2023/02/01 23:28:26;;;;;;;2.47;0.50;;;;;;;;;;4938652;29;20031;-95
2023/02/01 23:30:53;;;;;;;2.17;0.50;;;;;;;;;;4938176;29;20031;-96
2023/02/01 23:33:21;;;;;;;0.82;0.38;;;;;;;;;;4935306;29;20496;-93
2023/02/01 23:35:58;;;;;;;1.23;0.50;;;;;;;;;;4934824;29;20034;-95
2023/02/01 23:38:24;;;;;;;2.03;0.40;;;;;;;;;;4935381;29;20147;-95
2023/02/01 23:40:51;;;;;;;2.72;0.50;;;;;;;;;;4935073;29;20043;-95
2023/02/01 23:46:03;;;;;;;2.03;0.50;;;;;;;;;;4936192;29;20114;-96
2023/02/01 23:48:29;;;;;;;0.85;0.30;;;;;;;;;;4934820;29;20030;-94
2023/02/01 23:50:55;;;;;;;1.30;0.40;;;;;;;;;;4935960;29;20031;-96
2023/02/01 23:56:27;;;;;;;1.23;0.50;;;;;;;;;;4956367;23;20477;-94
